Time;durP1;ratioP1;P1;durP2;ratioP2;P2;SDS_P1;SDS_P2;PMS_P1;PMS_P2;Temp;Humidity;BMP_temperature;BMP_pressure;BME280_temperature;BME280_humidity;BME280_pressure;Samples;Min_cycle;Max_cycle;Signal;HPM_P1;HPM_P2
2023/07/03 00:00:58;;;;;;;11.88;10.65;;;512.70;2380.80;;;;;;5088573;28;20031;-59
2023/07/03 00:03:23;;;;;;;17.30;9.65;;;512.60;2380.80;;;;;;5088163;28;20020;-59
2023/07/03 00:05:49;;;;;;;13.32;11.60;;;512.60;2380.80;;;;;;5088934;28;20196;-60
2023/07/03 00:08:17;;;;;;;12.45;10.55;;;512.50;2380.80;;;;;;5088362;28;20486;-60
2023/07/03 00:10:42;;;;;;;13.68;11.18;;;512.40;2380.80;;;;;;5089063;28;20055;-59
2023/07/03 00:13:09;;;;;;;14.48;11.00;;;512.40;2380.80;;;;;;5088332;28;20060;-59
2023/07/03 00:15:35;;;;;;;15.27;10.82;;;512.40;2380.80;;;;;;5091445;28;20416;-61
2023/07/03 00:18:01;;;;;;;13.18;10.45;;;512.40;2380.80;;;;;;5092140;28;20057;-62
2023/07/03 00:20:27;;;;;;;13.77;10.60;;;512.30;2380.80;;;;;;5092775;28;20035;-60
2023/07/03 00:22:54;;;;;;;12.05;10.35;;;512.20;2380.80;;;;;;5092408;28;20028;-60
2023/07/03 00:25:20;;;;;;;13.43;10.65;;;512.20;2380.80;;;;;;5092532;28;20026;-59
2023/07/03 00:27:46;;;;;;;14.68;11.00;;;512.20;2380.80;;;;;;5092089;28;20162;-60
2023/07/03 00:30:13;;;;;;;13.35;11.15;;;512.20;2380.80;;;;;;5092322;28;20028;-61
2023/07/03 00:32:39;;;;;;;13.60;10.88;;;512.10;2380.80;;;;;;5091635;28;20028;-60
2023/07/03 00:35:06;;;;;;;13.23;10.43;;;512.10;2380.80;;;;;;5092696;28;20472;-59
2023/07/03 00:37:32;;;;;;;13.65;12.23;;;512.10;2380.80;;;;;;5092098;28;20106;-60
2023/07/03 00:39:58;;;;;;;13.45;10.85;;;512.10;2380.80;;;;;;5092259;28;20035;-61
2023/07/03 00:42:26;;;;;;;16.92;13.02;;;512.00;2380.80;;;;;;5092407;28;20107;-60
2023/07/03 00:44:52;;;;;;;13.30;10.73;;;512.00;2380.80;;;;;;5091577;28;20103;-61
2023/07/03 00:47:18;;;;;;;14.30;11.85;;;512.00;2380.80;;;;;;5072971;28;20119;-61
2023/07/03 00:49:43;;;;;;;17.35;12.02;;;512.00;2380.80;;;;;;5092086;28;20024;-61
2023/07/03 00:52:11;;;;;;;13.25;10.73;;;512.00;2380.80;;;;;;5091743;28;20082;-61
2023/07/03 00:54:38;;;;;;;17.23;11.35;;;487.30;2380.80;;;;;;5091861;28;20042;-61
2023/07/03 00:57:04;;;;;;;11.70;10.27;;;487.30;2380.80;;;;;;5091854;28;20024;-62
2023/07/03 00:59:33;;;;;;;13.15;10.13;;;487.30;2380.80;;;;;;5091816;28;20050;-63
2023/07/03 01:02:34;;;;;;;11.88;9.50;;;487.30;2380.80;;;;;;5091699;28;20382;-61
2023/07/03 01:05:14;;;;;;;15.75;10.43;;;487.30;2380.80;;;;;;5073323;28;20028;-60
2023/07/03 01:07:41;;;;;;;13.60;10.68;;;487.30;2380.80;;;;;;5091587;28;20459;-60
2023/07/03 01:10:13;;;;;;;15.05;10.27;;;487.30;2380.80;;;;;;5091726;28;20103;-61
2023/07/03 01:12:44;;;;;;;14.57;10.93;;;487.30;2380.80;;;;;;5091636;28;20016;-60
2023/07/03 01:15:17;;;;;;;15.48;12.27;;;487.30;2380.80;;;;;;5091247;28;20063;-63
2023/07/03 01:17:44;;;;;;;12.07;10.50;;;487.30;2380.80;;;;;;5091656;28;20374;-60
2023/07/03 01:20:14;;;;;;;15.65;11.02;;;487.30;2380.80;;;;;;5090732;28;20040;-61
2023/07/03 01:23:19;;;;;;;11.90;10.63;;;487.20;2380.80;;;;;;5091399;28;20044;-60
2023/07/03 01:25:48;;;;;;;12.60;10.00;;;487.20;2380.80;;;;;;5008798;28;20037;-61
2023/07/03 01:28:17;;;;;;;12.52;11.25;;;487.20;2380.80;;;;;;5009133;28;20038;-61
2023/07/03 01:30:44;;;;;;;12.15;10.90;;;487.20;2380.80;;;;;;5008685;28;20595;-61
2023/07/03 01:33:17;;;;;;;15.00;11.05;;;487.20;2380.80;;;;;;5008208;28;20026;-60
2023/07/03 01:35:46;;;;;;;12.82;10.52;;;487.20;2380.80;;;;;;5009228;28;20403;-61
2023/07/03 01:38:13;;;;;;;11.98;10.75;;;487.10;2380.80;;;;;;5007945;28;20042;-61
2023/07/03 01:40:40;;;;;;;18.25;10.70;;;487.10;2380.80;;;;;;5008291;28;20026;-62
2023/07/03 01:43:06;;;;;;;13.38;11.63;;;487.20;2380.80;;;;;;5008506;28;20091;-61
2023/07/03 01:45:41;;;;;;;14.45;11.60;;;487.10;2380.80;;;;;;4991750;28;20041;-61
2023/07/03 01:48:08;;;;;;;15.10;10.82;;;487.10;2380.80;;;;;;5007880;28;20034;-60
2023/07/03 01:50:33;;;;;;;14.25;11.18;;;487.10;2380.80;;;;;;5008472;28;20041;-60
2023/07/03 01:53:04;;;;;;;10.82;9.57;;;487.10;2380.80;;;;;;5008265;28;20030;-60
2023/07/03 01:55:39;;;;;;;12.88;10.68;;;487.10;2380.80;;;;;;5008848;28;20029;-60
2023/07/03 01:58:10;;;;;;;13.32;10.93;;;486.90;2380.80;;;;;;5008399;28;20033;-60
2023/07/03 02:00:56;;;;;;;14.07;11.20;;;487.10;2380.80;;;;;;5007793;28;20081;-61
2023/07/03 02:03:35;;;;;;;11.23;9.90;;;487.10;2380.80;;;;;;5080323;28;20054;-61
2023/07/03 02:06:09;;;;;;;13.82;11.13;;;487.10;2380.80;;;;;;5090644;28;20024;-60
2023/07/03 02:08:34;;;;;;;;;;;487.10;2380.80;;;;;;5090733;28;20043;-60
2023/07/03 02:11:00;;;;;;;13.55;10.05;;;487.00;2380.80;;;;;;5090134;28;19904;-61
2023/07/03 02:13:26;;;;;;;15.35;11.18;;;487.00;2380.80;;;;;;5090456;28;20028;-60
2023/07/03 02:15:51;;;;;;;12.65;9.93;;;486.90;2380.80;;;;;;5089567;28;20051;-60
2023/07/03 02:18:17;;;;;;;13.85;10.93;;;487.00;2380.80;;;;;;5090305;28;20023;-60
2023/07/03 02:20:50;;;;;;;12.43;10.45;;;487.00;2380.80;;;;;;5090204;28;20382;-59
2023/07/03 02:23:16;;;;;;;15.05;11.00;;;487.00;2380.80;;;;;;5089603;28;20454;-61
2023/07/03 02:25:43;;;;;;;11.52;9.50;;;486.90;2380.80;;;;;;5089924;28;20039;-60
2023/07/03 02:28:09;;;;;;;13.32;10.60;;;486.90;2380.80;;;;;;5089881;28;20032;-61
2023/07/03 02:30:35;;;;;;;12.18;10.70;;;486.80;2380.80;;;;;;5089950;28;20382;-61
2023/07/03 02:33:01;;;;;;;16.05;11.60;;;486.80;2380.80;;;;;;5089662;28;20020;-62
2023/07/03 02:35:27;;;;;;;14.15;10.02;;;486.80;2380.80;;;;;;5090328;28;20032;-60
2023/07/03 02:37:53;;;;;;;13.40;10.75;;;486.80;2380.80;;;;;;5086484;28;20048;-59
2023/07/03 02:40:19;;;;;;;13.18;10.88;;;486.80;2380.80;;;;;;5075513;28;20381;-60
2023/07/03 02:42:44;;;;;;;12.70;10.10;;;486.80;2380.80;;;;;;5069774;28;20070;-60
2023/07/03 02:45:10;;;;;;;13.98;11.38;;;486.80;2380.80;;;;;;5089673;28;20106;-60
2023/07/03 02:47:37;;;;;;;15.63;10.65;;;486.80;2380.80;;;;;;5089893;28;20027;-61
2023/07/03 02:50:03;;;;;;;11.50;10.27;;;486.70;2380.80;;;;;;5089998;28;20405;-63
2023/07/03 02:52:29;;;;;;;15.07;12.00;;;486.70;2380.80;;;;;;5089344;28;20032;-61
2023/07/03 02:54:55;;;;;;;11.88;9.88;;;486.70;2380.80;;;;;;5089389;28;20105;-60
2023/07/03 02:57:21;;;;;;;12.45;10.52;;;486.70;2380.80;;;;;;5089746;28;20035;-61
2023/07/03 02:59:47;;;;;;;16.30;10.27;;;486.80;2380.80;;;;;;5089241;28;20095;-60
2023/07/03 03:02:12;;;;;;;14.35;10.70;;;486.80;2380.80;;;;;;5087870;28;20039;-60
2023/07/03 03:04:38;;;;;;;14.13;11.25;;;486.80;2380.80;;;;;;5089241;28;20069;-60
2023/07/03 03:07:04;;;;;;;28.02;19.60;;;486.80;2380.80;;;;;;5089342;28;20047;-60
2023/07/03 03:09:30;;;;;;;12.82;10.60;;;486.80;2380.80;;;;;;5089470;28;20085;-60
2023/07/03 03:11:55;;;;;;;11.93;9.52;;;486.80;2380.80;;;;;;5089325;28;20107;-61
2023/07/03 03:14:21;;;;;;;13.35;9.52;;;486.90;2380.80;;;;;;5089567;28;20062;-61
2023/07/03 03:16:47;;;;;;;11.40;9.85;;;486.90;2380.80;;;;;;5088690;28;20039;-61
2023/07/03 03:19:12;;;;;;;13.63;10.18;;;486.90;2380.80;;;;;;5089481;28;20107;-60
2023/07/03 03:21:38;;;;;;;12.98;10.07;;;487.00;2380.80;;;;;;5089349;28;20363;-60
2023/07/03 03:24:04;;;;;;;12.82;10.52;;;487.10;2380.80;;;;;;5089275;28;20095;-60
2023/07/03 03:26:30;;;;;;;14.52;10.40;;;487.10;2380.80;;;;;;5087565;28;20024;-59
2023/07/03 03:28:57;;;;;;;12.40;10.05;;;487.10;2380.80;;;;;;5077176;28;20024;-61
2023/07/03 03:31:23;;;;;;;15.77;11.10;;;487.10;2380.80;;;;;;5088837;28;20028;-58
2023/07/03 03:33:48;;;;;;;14.18;11.85;;;487.00;2380.80;;;;;;5088930;28;20087;-60
2023/07/03 03:36:15;;;;;;;14.40;10.63;;;487.10;2380.80;;;;;;5089252;28;20034;-59
2023/07/03 03:38:41;;;;;;;18.48;10.38;;;487.20;2380.80;;;;;;5088732;28;20087;-59
2023/07/03 03:41:06;;;;;;;14.82;9.48;;;487.30;2380.80;;;;;;5088932;28;20051;-60
2023/07/03 03:43:32;;;;;;;12.40;10.18;;;512.10;2380.80;;;;;;5089136;28;20081;-61
2023/07/03 03:46:00;;;;;;;11.80;9.98;;;512.10;2380.80;;;;;;5088326;28;20538;-60
2023/07/03 03:48:27;;;;;;;12.93;10.18;;;512.30;2380.80;;;;;;5088489;28;20482;-60
2023/07/03 03:50:53;;;;;;;12.50;10.13;;;512.50;2380.80;;;;;;5092766;28;20062;-60
2023/07/03 03:53:19;;;;;;;11.85;9.75;;;512.60;2380.80;;;;;;5092861;28;20055;-61
2023/07/03 03:55:49;;;;;;;14.30;9.20;;;512.70;2380.80;;;;;;5092774;28;20055;-60
2023/07/03 03:58:15;;;;;;;16.65;9.63;;;512.90;2380.80;;;;;;5093068;28;20111;-60
2023/07/03 04:00:42;;;;;;;12.40;9.68;;;537.70;2406.40;;;;;;5092147;28;20031;-61
2023/07/03 04:03:08;;;;;;;12.52;9.63;;;537.60;2406.40;;;;;;5092846;28;20436;-60
2023/07/03 04:05:33;;;;;;;12.48;9.57;;;512.90;2380.80;;;;;;5092776;28;20016;-62
2023/07/03 04:07:59;;;;;;;12.15;10.00;;;512.90;2380.80;;;;;;5092365;28;20051;-61
2023/07/03 04:10:25;;;;;;;11.77;9.05;;;512.90;2380.80;;;;;;5092506;28;20429;-61
2023/07/03 04:12:51;;;;;;;13.20;9.95;;;512.80;2380.80;;;;;;5084072;28;20021;-60
2023/07/03 04:15:16;;;;;;;11.55;9.10;;;512.70;2380.80;;;;;;5087298;28;20026;-61
2023/07/03 04:17:42;;;;;;;15.30;9.40;;;512.80;2380.80;;;;;;5092360;28;20020;-61
2023/07/03 04:20:13;;;;;;;12.15;9.68;;;512.90;2380.80;;;;;;5090421;28;20036;-59
2023/07/03 04:22:39;;;;;;;13.38;9.73;;;512.90;2380.80;;;;;;5092192;28;20047;-62
2023/07/03 04:25:06;;;;;;;11.52;8.93;;;537.70;2406.40;;;;;;5092491;28;20205;-61
2023/07/03 04:27:31;;;;;;;12.70;10.23;;;537.80;2406.40;;;;;;5092431;28;20096;-61
2023/07/03 04:29:57;;;;;;;18.42;9.88;;;537.90;2406.40;;;;;;5091730;28;20522;-61
2023/07/03 04:32:23;;;;;;;13.65;9.73;;;538.00;2406.40;;;;;;5092346;28;20021;-61
2023/07/03 04:34:48;;;;;;;12.05;9.50;;;538.20;2406.40;;;;;;5091981;28;20059;-61
2023/07/03 04:37:15;;;;;;;10.30;9.05;;;589.10;2432.00;;;;;;5092272;28;20115;-64
2023/07/03 04:39:41;;;;;;;14.73;9.07;;;691.70;2432.00;;;;;;5091853;28;20482;-60
2023/07/03 04:42:07;;;;;;;12.15;10.93;;;768.60;2227.20;;;;;;5091789;28;20103;-60
2023/07/03 04:44:33;;;;;;;12.05;9.57;;;820.10;1971.20;;;;;;5091628;28;20042;-60
2023/07/03 04:47:04;;;;;;;11.50;9.27;;;871.00;1817.60;;;;;;5075134;28;20489;-63
2023/07/03 04:49:31;;;;;;;13.07;9.55;;;896.90;1689.60;;;;;;5081761;28;20040;-60
2023/07/03 04:51:58;;;;;;;12.73;9.57;;;922.50;1638.40;;;;;;5091555;28;20136;-61
2023/07/03 04:54:24;;;;;;;10.98;8.68;;;947.60;1561.60;;;;;;5091934;28;20095;-60
2023/07/03 04:56:50;;;;;;;15.05;9.40;;;948.00;1536.00;;;;;;5091708;28;20031;-61
2023/07/03 04:59:16;;;;;;;11.13;9.02;;;973.70;1510.40;;;;;;5091430;28;20365;-60
2023/07/03 05:01:44;;;;;;;12.18;9.63;;;998.60;1484.80;;;;;;5090982;28;20024;-61
2023/07/03 05:04:11;;;;;;;9.65;8.75;;;999.30;1459.20;;;;;;5092039;28;20423;-61
2023/07/03 05:06:39;;;;;;;11.77;9.35;;;999.30;1433.60;;;;;;5089763;28;20073;-61
2023/07/03 05:09:05;;;;;;;10.48;9.25;;;;;;;;;;5071102;28;20571;-61
2023/07/03 05:11:34;;;;;;;10.02;8.98;;;1024.60;1408.00;;;;;;5071271;28;20040;-61
2023/07/03 05:14:00;;;;;;;12.60;9.40;;;1049.60;1408.00;;;;;;5085154;28;20065;-62
2023/07/03 05:16:26;;;;;;;11.38;9.77;;;1024.30;1408.00;;;;;;5090695;28;20032;-60
2023/07/03 05:18:52;;;;;;;10.98;10.07;;;1049.80;1356.80;;;;;;5091483;28;20047;-61
2023/07/03 05:21:18;;;;;;;10.93;9.88;;;1075.30;1331.20;;;;;;5091099;28;20479;-62
2023/07/03 05:23:43;;;;;;;13.80;11.50;;;1101.00;1305.60;;;;;;5091322;28;20145;-60
2023/07/03 05:26:09;;;;;;;10.82;9.70;;;1126.40;1305.60;;;;;;5090227;28;20047;-66
2023/07/03 05:28:36;;;;;;;13.15;11.68;;;1127.10;1254.40;;;;;;5090545;28;20106;-64
2023/07/03 05:31:02;;;;;;;12.15;11.05;;;1152.10;1228.80;;;;;;5090292;28;20032;-65
2023/07/03 05:33:29;;;;;;;13.40;12.30;;;1152.60;1203.20;;;;;;5091206;28;20031;-63
2023/07/03 05:35:56;;;;;;;12.88;11.90;;;1177.70;1177.60;;;;;;5081565;28;20104;-62
2023/07/03 05:38:22;;;;;;;14.00;12.32;;;1177.60;1152.00;;;;;;5075674;28;20127;-62
2023/07/03 05:40:50;;;;;;;12.65;11.65;;;1178.10;1126.40;;;;;;5090589;28;20138;-63
2023/07/03 05:43:16;;;;;;;14.93;13.40;;;1178.30;1126.40;;;;;;5090805;28;20019;-63
2023/07/03 05:45:41;;;;;;;13.98;12.88;;;1203.80;1126.40;;;;;;5090599;28;20042;-63
2023/07/03 05:48:07;;;;;;;14.10;12.90;;;1204.10;1100.80;;;;;;5090826;28;20016;-63
2023/07/03 05:50:33;;;;;;;14.13;13.02;;;1203.60;1126.40;;;;;;5090710;28;20027;-64
2023/07/03 05:52:59;;;;;;;14.45;12.98;;;1204.10;1100.80;;;;;;5090797;28;20057;-62
2023/07/03 05:55:24;;;;;;;14.23;13.13;;;1228.80;1100.80;;;;;;5090313;28;20673;-63
2023/07/03 05:57:50;;;;;;;16.85;15.38;;;1228.90;1100.80;;;;;;5090893;28;20032;-62
2023/07/03 06:00:17;;;;;;;15.43;14.25;;;1178.50;1100.80;;;;;;5090014;28;20016;-63
2023/07/03 06:02:44;;;;;;;15.95;14.70;;;1203.60;1100.80;;;;;;5090342;28;20020;-62
2023/07/03 06:05:12;;;;;;;16.55;15.07;;;1203.30;1126.40;;;;;;5090487;28;20055;-63
2023/07/03 06:07:38;;;;;;;15.90;14.70;;;1203.30;1100.80;;;;;;5090578;28;20039;-64
2023/07/03 06:10:04;;;;;;;17.65;16.30;;;1203.90;1100.80;;;;;;5090492;28;20044;-62
2023/07/03 06:12:30;;;;;;;15.35;14.05;;;1229.50;1075.20;;;;;;5089452;28;20020;-63
2023/07/03 06:15:00;;;;;;;18.10;16.67;;;1229.70;1075.20;;;;;;5089886;28;20031;-63
2023/07/03 06:17:28;;;;;;;18.60;16.98;;;1254.50;1100.80;;;;;;5090167;28;20096;-63
2023/07/03 06:19:54;;;;;;;15.57;14.35;;;1254.80;1075.20;;;;;;5088900;28;20031;-63
2023/07/03 06:22:20;;;;;;;17.02;15.82;;;1255.10;1075.20;;;;;;5090667;28;20031;-63
2023/07/03 06:24:46;;;;;;;18.30;16.90;;;1255.00;1075.20;;;;;;5090064;28;20024;-64
2023/07/03 06:27:12;;;;;;;19.40;17.80;;;1255.30;1049.60;;;;;;5090139;28;20104;-62
2023/07/03 06:29:39;;;;;;;17.70;16.30;;;1280.00;1075.20;;;;;;5089807;28;20023;-64
2023/07/03 06:32:05;;;;;;;18.23;16.77;;;;;;;;;;5090440;28;20381;-63
2023/07/03 06:34:31;;;;;;;18.60;17.10;;;1305.70;1024.00;;;;;;5089741;28;20028;-64
2023/07/03 06:36:57;;;;;;;18.75;17.30;;;1305.70;1024.00;;;;;;5089788;28;20035;-64
2023/07/03 06:39:23;;;;;;;18.80;17.50;;;1306.20;998.40;;;;;;5087809;28;20132;-64
2023/07/03 06:41:48;;;;;;;19.25;17.55;;;1305.70;1024.00;;;;;;5089969;28;20099;-63
2023/07/03 06:44:16;;;;;;;18.75;17.27;;;1331.40;998.40;;;;;;5076209;28;20385;-63
2023/07/03 06:46:43;;;;;;;16.63;15.55;;;1331.60;998.40;;;;;;5089497;28;20024;-64
2023/07/03 06:49:09;;;;;;;17.13;16.02;;;1306.00;972.80;;;;;;5089607;28;20386;-64
2023/07/03 06:51:36;;;;;;;18.90;17.45;;;1306.20;947.20;;;;;;5089538;28;20017;-65
2023/07/03 06:54:02;;;;;;;18.63;17.13;;;1331.40;972.80;;;;;;5089570;28;20032;-65
2023/07/03 06:56:29;;;;;;;17.48;16.00;;;1331.60;972.80;;;;;;5089645;28;20024;-64
2023/07/03 06:58:55;;;;;;;16.73;15.43;;;1331.40;972.80;;;;;;5089507;28;20036;-63
2023/07/03 07:01:23;;;;;;;17.27;15.98;;;1331.60;947.20;;;;;;5088986;28;20020;-68
2023/07/03 07:03:49;;;;;;;18.23;16.92;;;1357.20;947.20;;;;;;5087354;28;20497;-64
2023/07/03 07:06:24;;;;;;;17.92;16.80;;;1357.40;921.60;;;;;;5087776;28;20562;-65
2023/07/03 07:08:50;;;;;;;16.48;15.20;;;1357.40;921.60;;;;;;5087444;28;20596;-64
2023/07/03 07:11:24;;;;;;;17.73;16.50;;;1332.10;947.20;;;;;;5087661;28;20071;-64
2023/07/03 07:13:51;;;;;;;17.40;15.82;;;1356.90;947.20;;;;;;5087610;28;20150;-64
2023/07/03 07:16:23;;;;;;;17.35;16.20;;;1357.50;921.60;;;;;;5087127;28;20024;-65
2023/07/03 07:18:51;;;;;;;18.85;17.67;;;1383.30;921.60;;;;;;5087695;28;20035;-64
2023/07/03 07:21:17;;;;;;;19.23;17.75;;;1408.50;870.40;;;;;;5087466;28;20032;-65
2023/07/03 07:23:52;;;;;;;18.65;17.05;;;1408.40;896.00;;;;;;5087228;28;20038;-65
2023/07/03 07:26:19;;;;;;;18.13;16.92;;;1408.00;896.00;;;;;;5087442;28;20016;-64
2023/07/03 07:28:44;;;;;;;17.13;16.02;;;1383.30;896.00;;;;;;5087048;28;20103;-70
2023/07/03 07:31:12;;;;;;;16.20;15.15;;;1408.70;870.40;;;;;;5087292;28;20111;-66
2023/07/03 07:33:38;;;;;;;16.60;15.60;;;1408.20;870.40;;;;;;5086971;28;20040;-65
2023/07/03 07:36:04;;;;;;;16.42;15.23;;;1408.50;844.80;;;;;;5087736;28;20024;-65
2023/07/03 07:38:29;;;;;;;15.25;14.43;;;1408.90;844.80;;;;;;5086861;28;20082;-65
2023/07/03 07:41:02;;;;;;;14.65;13.85;;;1408.90;819.20;;;;;;5086935;28;20031;-65
2023/07/03 07:43:29;;;;;;;16.40;15.30;;;1433.70;819.20;;;;;;5087540;28;20028;-64
2023/07/03 07:45:55;;;;;;;15.98;15.00;;;1408.40;819.20;;;;;;5087337;28;20032;-68
2023/07/03 07:48:21;;;;;;;15.93;14.93;;;1408.50;819.20;;;;;;5088040;28;20024;-69
2023/07/03 07:50:47;;;;;;;15.93;15.02;;;1408.90;793.60;;;;;;5087354;28;20027;-69
2023/07/03 07:53:13;;;;;;;15.32;14.43;;;1433.90;819.20;;;;;;5087858;28;20031;-68
2023/07/03 07:55:38;;;;;;;15.27;14.38;;;1433.90;819.20;;;;;;5087056;28;20028;-68
2023/07/03 07:58:04;;;;;;;15.45;14.38;;;1408.40;844.80;;;;;;5087662;28;20039;-68
2023/07/03 08:00:30;;;;;;;14.95;14.07;;;1408.20;819.20;;;;;;5086849;28;20016;-67
2023/07/03 08:02:56;;;;;;;14.70;13.82;;;1383.30;844.80;;;;;;5087279;28;20470;-69
2023/07/03 08:05:21;;;;;;;16.38;14.52;;;1383.10;819.20;;;;;;5087158;28;20029;-68
2023/07/03 08:07:48;;;;;;;13.60;12.80;;;1357.20;844.80;;;;;;5086773;28;20081;-68
2023/07/03 08:10:14;;;;;;;12.32;11.55;;;1305.60;844.80;;;;;;5087178;28;20024;-68
2023/07/03 08:12:41;;;;;;;11.70;11.00;;;1280.50;896.00;;;;;;5087463;28;20040;-68
2023/07/03 08:15:07;;;;;;;12.02;11.23;;;1280.00;870.40;;;;;;5084107;28;20043;-68
2023/07/03 08:17:33;;;;;;;11.80;11.10;;;1229.20;921.60;;;;;;5074727;28;20102;-68
2023/07/03 08:19:59;;;;;;;10.43;9.77;;;1152.60;947.20;;;;;;5086117;28;20035;-67
2023/07/03 08:22:26;;;;;;;8.93;8.23;;;1101.10;1075.20;;;;;;5087302;28;20024;-67
2023/07/03 08:24:52;;;;;;;8.43;7.63;;;1050.20;1075.20;;;;;;5087098;28;20089;-67
2023/07/03 08:27:17;;;;;;;7.38;6.68;;;1024.00;1126.40;;;;;;5086930;28;20024;-68
2023/07/03 08:29:46;;;;;;;6.78;6.18;;;998.40;1203.20;;;;;;5087037;28;20067;-67
2023/07/03 08:32:12;;;;;;;6.50;5.78;;;973.00;1152.00;;;;;;5086961;28;20032;-66
2023/07/03 08:34:38;;;;;;;7.10;6.03;;;947.90;1203.20;;;;;;5086746;28;20038;-67
2023/07/03 08:37:04;;;;;;;10.13;7.05;;;947.30;1228.80;;;;;;5090417;28;20024;-66
2023/07/03 08:39:29;;;;;;;6.88;6.28;;;947.20;1254.40;;;;;;5090543;28;20055;-67
2023/07/03 08:42:41;;;;;;;8.20;6.78;;;921.70;1254.40;;;;;;5090686;28;20480;-67
2023/07/03 08:45:12;;;;;;;6.65;5.85;;;921.80;1280.00;;;;;;5079200;28;20028;-67
2023/07/03 08:47:39;;;;;;;7.65;6.00;;;921.90;1280.00;;;;;;5089708;28;20016;-67
2023/07/03 08:50:06;;;;;;;6.70;6.05;;;896.70;1331.20;;;;;;5090704;28;20027;-67
2023/07/03 08:52:44;;;;;;;6.45;5.82;;;896.80;1280.00;;;;;;5090120;28;20466;-69
2023/07/03 08:55:21;;;;;;;6.55;5.60;;;896.40;1280.00;;;;;;5091459;28;20031;-67
2023/07/03 08:57:47;;;;;;;8.25;6.13;;;896.30;1305.60;;;;;;5091851;28;20028;-67
2023/07/03 09:00:13;;;;;;;7.93;5.65;;;896.20;1382.40;;;;;;5091744;28;20032;-67
2023/07/03 09:03:01;;;;;;;6.63;5.93;;;871.30;1382.40;;;;;;5072993;28;20021;-66
2023/07/03 09:05:48;;;;;;;6.13;5.47;;;871.30;1382.40;;;;;;5086408;28;20028;-66
2023/07/03 09:08:23;;;;;;;6.85;6.13;;;870.80;1382.40;;;;;;5091715;28;20028;-66
2023/07/03 09:10:49;;;;;;;7.45;5.65;;;870.70;1408.00;;;;;;5091526;28;20048;-67
2023/07/03 09:13:20;;;;;;;5.97;5.38;;;870.90;1408.00;;;;;;5091963;28;20052;-65
2023/07/03 09:16:11;;;;;;;5.70;4.55;;;870.70;1382.40;;;;;;5090557;28;20047;-66
2023/07/03 09:18:42;;;;;;;5.90;5.25;;;870.70;1408.00;;;;;;5091355;28;20039;-65
2023/07/03 09:21:08;;;;;;;7.10;5.80;;;870.70;1433.60;;;;;;5091283;28;20063;-65
2023/07/03 09:24:06;;;;;;;6.47;5.40;;;870.70;1408.00;;;;;;5078172;28;20280;-65
2023/07/03 09:26:53;;;;;;;5.78;5.13;;;870.50;1433.60;;;;;;5091169;28;20481;-65
2023/07/03 09:29:19;;;;;;;6.22;5.20;;;845.70;1433.60;;;;;;5091056;28;20031;-66
2023/07/03 09:31:47;;;;;;;5.60;5.00;;;845.70;1459.20;;;;;;5090898;28;20016;-65
2023/07/03 09:34:12;;;;;;;8.13;5.78;;;845.60;1433.60;;;;;;5079341;28;20016;-65
2023/07/03 09:36:41;;;;;;;7.43;5.68;;;845.30;1382.40;;;;;;5089221;28;20023;-66
2023/07/03 09:39:12;;;;;;;6.85;5.78;;;845.40;1382.40;;;;;;5090534;28;20105;-67
2023/07/03 09:41:39;;;;;;;5.80;4.47;;;845.30;1433.60;;;;;;5090653;28;20027;-65
2023/07/03 09:44:17;;;;;;;6.35;4.68;;;845.30;1459.20;;;;;;5090924;28;20031;-67
2023/07/03 09:46:45;;;;;;;5.75;5.03;;;845.30;1433.60;;;;;;5090421;28;20462;-66
2023/07/03 09:49:28;;;;;;;6.28;4.68;;;845.30;1459.20;;;;;;5090288;28;20036;-67
2023/07/03 09:51:57;;;;;;;6.40;5.28;;;845.20;1510.40;;;;;;5091160;28;20085;-66
2023/07/03 09:54:27;;;;;;;6.20;5.03;;;844.90;1433.60;;;;;;5091024;28;20112;-65
2023/07/03 09:56:53;;;;;;;4.90;4.40;;;845.20;1484.80;;;;;;5091088;28;20052;-66
2023/07/03 09:59:19;;;;;;;10.10;5.43;;;845.00;1459.20;;;;;;5090797;28;20039;-66
2023/07/03 10:01:46;;;;;;;7.75;4.90;;;844.90;1510.40;;;;;;5090448;28;20016;-66
2023/07/03 10:04:15;;;;;;;5.47;4.53;;;845.00;1510.40;;;;;;5090722;28;20024;-66
2023/07/03 10:07:04;;;;;;;7.72;4.95;;;844.80;1484.80;;;;;;5090798;28;20085;-65
2023/07/03 10:09:36;;;;;;;8.38;4.22;;;820.10;1510.40;;;;;;5090582;28;20501;-64
2023/07/03 10:12:11;;;;;;;9.82;5.05;;;819.90;1484.80;;;;;;5090375;28;20038;-66
2023/07/03 10:15:15;;;;;;;7.20;4.47;;;820.10;1510.40;;;;;;5090277;28;20470;-65
2023/07/03 10:17:52;;;;;;;6.00;4.50;;;820.00;1561.60;;;;;;5090355;28;20038;-66
2023/07/03 10:20:35;;;;;;;5.90;5.30;;;820.00;1510.40;;;;;;5090335;28;20016;-66
2023/07/03 10:23:04;;;;;;;6.03;5.03;;;820.10;1561.60;;;;;;5090119;28;20027;-65
2023/07/03 10:25:39;;;;;;;6.97;5.93;;;820.10;1536.00;;;;;;5089716;28;20047;-64
2023/07/03 10:28:11;;;;;;;6.65;4.72;;;820.10;1536.00;;;;;;5090005;28;20036;-65
2023/07/03 10:30:39;;;;;;;5.40;4.90;;;844.90;1536.00;;;;;;5089817;28;20081;-63
2023/07/03 10:33:11;;;;;;;8.93;5.97;;;844.80;1536.00;;;;;;5089337;28;20038;-65
2023/07/03 10:35:38;;;;;;;5.73;4.77;;;844.90;1561.60;;;;;;5089979;28;20020;-65
2023/07/03 10:38:27;;;;;;;8.38;5.03;;;820.10;1536.00;;;;;;5089767;28;20052;-60
2023/07/03 10:41:07;;;;;;;6.45;4.70;;;820.10;1536.00;;;;;;5090154;28;20028;-61
2023/07/03 10:43:38;;;;;;;6.63;5.10;;;844.80;1561.60;;;;;;5065308;28;20438;-61
2023/07/03 10:46:12;;;;;;;4.85;4.38;;;845.00;1536.00;;;;;;5089506;28;20026;-61
2023/07/03 10:48:38;;;;;;;8.98;4.82;;;845.00;1536.00;;;;;;5087551;28;20420;-66
2023/07/03 10:51:03;;;;;;;5.22;4.35;;;845.00;1510.40;;;;;;5089897;28;20393;-62
2023/07/03 10:53:38;;;;;;;5.38;4.20;;;845.20;1536.00;;;;;;5089399;28;20102;-62
2023/07/03 10:56:24;;;;;;;6.25;3.97;;;845.40;1561.60;;;;;;5089764;28;20095;-61
2023/07/03 10:59:21;;;;;;;4.85;4.40;;;845.40;1484.80;;;;;;5088333;28;20509;-61
2023/07/03 11:02:26;;;;;;;6.03;4.88;;;845.20;1510.40;;;;;;5088520;28;20413;-68
2023/07/03 11:04:55;;;;;;;5.72;4.10;;;845.40;1510.40;;;;;;5084171;28;20039;-62
2023/07/03 11:07:38;;;;;;;5.65;4.68;;;845.30;1510.40;;;;;;5089220;28;20028;-61
2023/07/03 11:10:22;;;;;;;8.43;4.40;;;845.20;1536.00;;;;;;5087371;28;20493;-61
2023/07/03 11:12:57;;;;;;;4.45;4.05;;;845.40;1561.60;;;;;;5089174;28;20059;-62
2023/07/03 11:15:43;;;;;;;7.05;4.57;;;845.60;1536.00;;;;;;5087589;28;20035;-61
2023/07/03 11:18:53;;;;;;;5.97;4.78;;;845.50;1536.00;;;;;;5088263;28;20064;-61
2023/07/03 11:21:41;;;;;;;6.28;4.97;;;845.10;1536.00;;;;;;5007245;28;20033;-62
2023/07/03 11:24:30;;;;;;;6.07;5.47;;;820.10;1536.00;;;;;;5006983;28;20484;-62
2023/07/03 11:27:06;;;;;;;8.05;5.43;;;845.10;1536.00;;;;;;5003570;28;20468;-61
2023/07/03 11:29:34;;;;;;;5.70;5.05;;;844.90;1536.00;;;;;;5007471;28;20038;-61
2023/07/03 11:32:03;;;;;;;7.05;5.90;;;844.90;1536.00;;;;;;5007073;28;20022;-61
2023/07/03 11:34:30;;;;;;;6.80;6.13;;;819.80;1536.00;;;;;;5006661;28;20022;-67
2023/07/03 11:36:57;;;;;;;8.25;5.55;;;819.70;1561.60;;;;;;5006093;28;20034;-61
2023/07/03 11:39:33;;;;;;;6.50;5.40;;;819.50;1536.00;;;;;;5006143;28;20105;-61
2023/07/03 11:42:01;;;;;;;5.22;4.35;;;819.80;1561.60;;;;;;5006122;28;20026;-62
2023/07/03 11:44:27;;;;;;;5.00;4.55;;;819.40;1536.00;;;;;;4994465;28;20572;-62
2023/07/03 11:47:13;;;;;;;8.73;5.00;;;819.50;1561.60;;;;;;5006726;28;20029;-62
2023/07/03 11:49:51;;;;;;;5.53;5.03;;;819.20;1510.40;;;;;;5006603;28;20111;-61
2023/07/03 11:52:40;;;;;;;7.28;4.93;;;819.30;1612.80;;;;;;5006274;28;20029;-63
2023/07/03 11:55:10;;;;;;;5.05;4.32;;;819.50;1612.80;;;;;;5045186;28;20437;-66
2023/07/03 11:57:42;;;;;;;5.65;4.63;;;819.30;1536.00;;;;;;5086520;28;20029;-62
2023/07/03 12:00:22;;;;;;;4.53;3.63;;;819.30;1561.60;;;;;;5076855;28;20031;-62
2023/07/03 12:02:48;;;;;;;4.32;3.70;;;819.60;1536.00;;;;;;5087478;28;20023;-61
2023/07/03 12:05:45;;;;;;;4.85;4.28;;;819.50;1536.00;;;;;;5088303;28;20118;-61
2023/07/03 12:08:22;;;;;;;5.80;4.57;;;819.60;1612.80;;;;;;5088048;28;20044;-61
2023/07/03 12:10:52;;;;;;;6.72;4.78;;;819.30;1536.00;;;;;;5089691;28;20024;-62
2023/07/03 12:13:34;;;;;;;6.60;4.00;;;819.60;1612.80;;;;;;5091334;28;20016;-67
2023/07/03 12:16:03;;;;;;;7.32;4.40;;;819.50;1536.00;;;;;;5092147;28;20073;-61
2023/07/03 12:18:29;;;;;;;4.85;4.35;;;794.40;1536.00;;;;;;5092315;28;20032;-62